NCAR-RAP Real-Time Weather Data

Output produced by METARs form (19 June 2019  10:40 UTC)
found at http://weather.rap.ucar.edu/surface/
 
KMLU 190953Z AUTO 00000KT 7SM FEW040 22/21 A2984 RMK AO2 SLP104 T02170206
KMLU 190853Z AUTO 18003KT 8SM CLR 22/21 A2985 RMK AO2 SLP105 T02170211 57010
KMLU 190753Z AUTO 00000KT 7SM CLR 22/21 A2985 RMK AO2 SLP107 T02220211
KMLU 190653Z AUTO 20003KT 10SM CLR 23/21 A2987 RMK AO2 SLP114 T02280211
KMLU 190553Z AUTO 00000KT 10SM CLR 23/21 A2988 RMK AO2 SLP116 T02280211 10317 20228 403280217 50004
KMLU 190453Z AUTO 00000KT 10SM CLR 23/22 A2988 RMK AO2 SLP116 T02330217
KMLU 190353Z AUTO 00000KT 10SM CLR 24/22 A2988 RMK AO2 SLP115 T02390217
KMLU 190253Z 00000KT 10SM CLR 25/22 A2987 RMK AO2 SLP111 T02500222 53009
KMLU 190153Z 00000KT 10SM CLR 27/22 A2985 RMK AO2 SLP106 T02670222
KMLU 190053Z 31004KT 10SM CLR 29/21 A2984 RMK AO2 SLP103 T02940206
KMLU 182353Z 31007KT 10SM FEW050 32/20 A2984 RMK AO2 SLP102 T03170200 10328 20300 56008
KMLU 182253Z 32011KT 10SM CLR 32/20 A2984 RMK AO2 SLP102 T03220200
KMLU 182153Z 30008KT 10SM SCT050 32/20 A2985 RMK AO2 SLP105 T03220200
KMLU 182053Z 29009KT 10SM FEW055 32/19 A2986 RMK AO2 SLP110 T03170194 56020
KMLU 181953Z AUTO 29011KT 10SM CLR 32/20 A2988 RMK AO2 SLP115 T03220200
KMLU 181853Z 28011KT 10SM BKN047 32/21 A2990 RMK AO2 SLP122 T03170206
KMLU 181753Z 29007KT 10SM BKN035 31/21 A2992 RMK AO2 SLP131 T03060211 10317 20228 58004
KMLU 181700Z 21005KT 10SM FEW031 FEW070 31/22 A2993 RMK AO2 T03060222
KMLU 181653Z 24006KT 10SM BKN027 BKN075 30/22 A2993 RMK AO2 SLP133 T03000222
KMLU 181608Z 24008KT 10SM BKN027 BKN075 29/22 A2993 RMK AO2 T02890222
KMLU 181553Z VRB05KT 10SM SCT027 SCT035 BKN075 29/22 A2994 RMK AO2 SLP135 T02940222
KMLU 181500Z 25005KT 10SM SCT021 28/22 A2993 RMK AO2 T02780222
KMLU 181453Z VRB03KT 10SM BKN021 28/23 A2994 RMK AO2 SLP135 T02780228 51005
KMLU 181353Z 26003KT 10SM CLR 26/23 A2993 RMK AO2 SLP134 T02610228